sensor_id;sensor_type;location;lat;lon;timestamp;temperature;humidity
44775;DHT22;31340;51.402;0.016;2024-01-15T00:00:30;6.00;99.90
44775;DHT22;31340;51.402;0.016;2024-01-15T00:02:57;6.00;99.90
44775;DHT22;31340;51.402;0.016;2024-01-15T00:05:25;6.00;99.90
44775;DHT22;31340;51.402;0.016;2024-01-15T00:07:53;6.00;99.90
44775;DHT22;31340;51.402;0.016;2024-01-15T00:10:21;5.90;99.90
44775;DHT22;31340;51.402;0.016;2024-01-15T00:12:49;5.90;99.90
44775;DHT22;31340;51.402;0.016;2024-01-15T00:15:17;5.90;99.90
44775;DHT22;31340;51.402;0.016;2024-01-15T00:17:45;5.80;99.90
44775;DHT22;31340;51.402;0.016;2024-01-15T00:20:13;5.80;99.90
44775;DHT22;31340;51.402;0.016;2024-01-15T00:22:41;5.80;99.90
44775;DHT22;31340;51.402;0.016;2024-01-15T00:25:09;5.70;99.90
44775;DHT22;31340;51.402;0.016;2024-01-15T00:27:37;5.70;99.90
44775;DHT22;31340;51.402;0.016;2024-01-15T00:30:06;5.70;99.90
44775;DHT22;31340;51.402;0.016;2024-01-15T00:32:34;5.60;99.90
44775;DHT22;31340;51.402;0.016;2024-01-15T00:35:03;5.60;99.90
44775;DHT22;31340;51.402;0.016;2024-01-15T00:37:31;5.50;99.90
44775;DHT22;31340;51.402;0.016;2024-01-15T00:39:59;5.50;99.90
44775;DHT22;31340;51.402;0.016;2024-01-15T00:42:29;5.40;99.90
44775;DHT22;31340;51.402;0.016;2024-01-15T00:44:56;5.40;99.90
44775;DHT22;31340;51.402;0.016;2024-01-15T00:47:24;5.30;99.90
44775;DHT22;31340;51.402;0.016;2024-01-15T00:49:52;5.30;99.90
44775;DHT22;31340;51.402;0.016;2024-01-15T00:52:20;5.20;99.90
44775;DHT22;31340;51.402;0.016;2024-01-15T00:54:48;5.20;99.90
44775;DHT22;31340;51.402;0.016;2024-01-15T00:57:16;5.10;99.90
44775;DHT22;31340;51.402;0.016;2024-01-15T00:59:47;5.10;99.90
44775;DHT22;31340;51.402;0.016;2024-01-15T01:02:16;5.00;99.90
44775;DHT22;31340;51.402;0.016;2024-01-15T01:04:43;5.00;99.90
44775;DHT22;31340;51.402;0.016;2024-01-15T01:07:11;4.90;99.90
44775;DHT22;31340;51.402;0.016;2024-01-15T01:09:39;4.90;99.90
44775;DHT22;31340;51.402;0.016;2024-01-15T01:12:06;4.90;99.90
44775;DHT22;31340;51.402;0.016;2024-01-15T01:14:34;4.90;99.90
44775;DHT22;31340;51.402;0.016;2024-01-15T01:17:02;4.80;99.90
44775;DHT22;31340;51.402;0.016;2024-01-15T01:19:31;4.80;99.90
44775;DHT22;31340;51.402;0.016;2024-01-15T01:22:00;4.70;99.90
44775;DHT22;31340;51.402;0.016;2024-01-15T01:24:27;4.70;99.90
44775;DHT22;31340;51.402;0.016;2024-01-15T01:26:55;4.70;99.90
44775;DHT22;31340;51.402;0.016;2024-01-15T01:29:24;4.60;99.90
44775;DHT22;31340;51.402;0.016;2024-01-15T01:31:51;4.60;99.90
44775;DHT22;31340;51.402;0.016;2024-01-15T01:34:19;4.50;99.90
44775;DHT22;31340;51.402;0.016;2024-01-15T01:36:47;4.50;99.90
44775;DHT22;31340;51.402;0.016;2024-01-15T01:39:16;4.40;99.90
44775;DHT22;31340;51.402;0.016;2024-01-15T01:41:44;4.40;99.90
44775;DHT22;31340;51.402;0.016;2024-01-15T01:44:12;4.40;99.90
44775;DHT22;31340;51.402;0.016;2024-01-15T01:46:41;4.30;99.90
44775;DHT22;31340;51.402;0.016;2024-01-15T01:49:09;4.20;99.90
44775;DHT22;31340;51.402;0.016;2024-01-15T01:51:38;4.20;99.90
44775;DHT22;31340;51.402;0.016;2024-01-15T01:54:08;4.10;99.90
44775;DHT22;31340;51.402;0.016;2024-01-15T01:56:37;4.00;99.90
44775;DHT22;31340;51.402;0.016;2024-01-15T01:59:07;4.00;99.90
44775;DHT22;31340;51.402;0.016;2024-01-15T02:01:39;3.90;99.90
44775;DHT22;31340;51.402;0.016;2024-01-15T02:04:07;3.90;99.90
44775;DHT22;31340;51.402;0.016;2024-01-15T02:06:36;3.80;99.90
44775;DHT22;31340;51.402;0.016;2024-01-15T02:09:04;3.80;99.90
44775;DHT22;31340;51.402;0.016;2024-01-15T02:11:33;3.80;99.90
44775;DHT22;31340;51.402;0.016;2024-01-15T02:14:01;3.70;99.90
44775;DHT22;31340;51.402;0.016;2024-01-15T02:16:29;3.70;99.90
44775;DHT22;31340;51.402;0.016;2024-01-15T02:18:57;3.60;99.90
44775;DHT22;31340;51.402;0.016;2024-01-15T02:21:25;3.60;99.90
44775;DHT22;31340;51.402;0.016;2024-01-15T02:23:58;3.50;99.90
44775;DHT22;31340;51.402;0.016;2024-01-15T02:26:26;3.50;99.90
44775;DHT22;31340;51.402;0.016;2024-01-15T02:28:53;3.50;99.90
44775;DHT22;31340;51.402;0.016;2024-01-15T02:34:25;3.40;99.90
44775;DHT22;31340;51.402;0.016;2024-01-15T02:36:54;3.30;99.90
44775;DHT22;31340;51.402;0.016;2024-01-15T02:39:22;3.30;99.90
44775;DHT22;31340;51.402;0.016;2024-01-15T02:41:50;3.30;99.90
44775;DHT22;31340;51.402;0.016;2024-01-15T02:44:17;3.30;99.90
44775;DHT22;31340;51.402;0.016;2024-01-15T02:46:45;3.20;99.90
44775;DHT22;31340;51.402;0.016;2024-01-15T02:49:12;3.20;99.90
44775;DHT22;31340;51.402;0.016;2024-01-15T02:51:40;3.20;99.90
44775;DHT22;31340;51.402;0.016;2024-01-15T02:54:08;3.20;99.90
44775;DHT22;31340;51.402;0.016;2024-01-15T02:56:36;3.20;99.90
44775;DHT22;31340;51.402;0.016;2024-01-15T02:59:04;3.10;99.90
44775;DHT22;31340;51.402;0.016;2024-01-15T03:01:32;3.10;99.90
44775;DHT22;31340;51.402;0.016;2024-01-15T03:04:00;3.10;99.90
44775;DHT22;31340;51.402;0.016;2024-01-15T03:06:29;3.10;99.90
44775;DHT22;31340;51.402;0.016;2024-01-15T03:08:56;3.00;99.90
44775;DHT22;31340;51.402;0.016;2024-01-15T03:11:24;3.00;99.90
44775;DHT22;31340;51.402;0.016;2024-01-15T03:13:52;3.00;99.90
44775;DHT22;31340;51.402;0.016;2024-01-15T03:16:20;3.00;99.90
44775;DHT22;31340;51.402;0.016;2024-01-15T03:18:48;2.90;99.90
44775;DHT22;31340;51.402;0.016;2024-01-15T03:21:16;2.90;99.90
44775;DHT22;31340;51.402;0.016;2024-01-15T03:23:44;2.90;99.90
44775;DHT22;31340;51.402;0.016;2024-01-15T03:26:11;2.90;99.90
44775;DHT22;31340;51.402;0.016;2024-01-15T03:28:39;2.90;99.90
44775;DHT22;31340;51.402;0.016;2024-01-15T03:31:07;2.90;99.90
44775;DHT22;31340;51.402;0.016;2024-01-15T03:33:35;2.90;99.90
44775;DHT22;31340;51.402;0.016;2024-01-15T03:36:04;2.80;99.90
44775;DHT22;31340;51.402;0.016;2024-01-15T03:38:32;2.80;99.90
44775;DHT22;31340;51.402;0.016;2024-01-15T03:40:59;2.80;99.90
44775;DHT22;31340;51.402;0.016;2024-01-15T03:43:27;2.80;99.90
44775;DHT22;31340;51.402;0.016;2024-01-15T03:45:55;2.70;99.90
44775;DHT22;31340;51.402;0.016;2024-01-15T03:48:23;2.70;99.90
44775;DHT22;31340;51.402;0.016;2024-01-15T03:50:51;2.70;99.90
44775;DHT22;31340;51.402;0.016;2024-01-15T03:53:18;2.70;99.90
44775;DHT22;31340;51.402;0.016;2024-01-15T03:55:46;2.60;99.90
44775;DHT22;31340;51.402;0.016;2024-01-15T03:58:13;2.60;99.90
44775;DHT22;31340;51.402;0.016;2024-01-15T04:00:42;2.60;99.90
44775;DHT22;31340;51.402;0.016;2024-01-15T04:03:10;2.60;99.90
44775;DHT22;31340;51.402;0.016;2024-01-15T04:05:38;2.60;99.90
44775;DHT22;31340;51.402;0.016;2024-01-15T04:08:06;2.60;99.90
44775;DHT22;31340;51.402;0.016;2024-01-15T04:10:34;2.50;99.90
44775;DHT22;31340;51.402;0.016;2024-01-15T04:13:02;2.50;99.90
44775;DHT22;31340;51.402;0.016;2024-01-15T04:15:30;2.50;99.90
44775;DHT22;31340;51.402;0.016;2024-01-15T04:18:00;2.40;99.90
44775;DHT22;31340;51.402;0.016;2024-01-15T04:20:29;2.50;99.90
44775;DHT22;31340;51.402;0.016;2024-01-15T04:22:57;2.40;99.90
44775;DHT22;31340;51.402;0.016;2024-01-15T04:25:24;2.40;99.90
44775;DHT22;31340;51.402;0.016;2024-01-15T04:27:52;2.40;99.90
44775;DHT22;31340;51.402;0.016;2024-01-15T04:30:20;2.40;99.90
44775;DHT22;31340;51.402;0.016;2024-01-15T04:32:47;2.30;99.90
44775;DHT22;31340;51.402;0.016;2024-01-15T04:35:16;2.30;99.90
44775;DHT22;31340;51.402;0.016;2024-01-15T04:37:44;2.30;99.90
44775;DHT22;31340;51.402;0.016;2024-01-15T04:40:12;2.30;99.90
44775;DHT22;31340;51.402;0.016;2024-01-15T04:42:40;2.30;99.90
44775;DHT22;31340;51.402;0.016;2024-01-15T04:45:08;2.30;99.90
44775;DHT22;31340;51.402;0.016;2024-01-15T04:47:36;2.20;99.90
44775;DHT22;31340;51.402;0.016;2024-01-15T04:50:05;2.20;99.90
44775;DHT22;31340;51.402;0.016;2024-01-15T04:52:33;2.20;99.90
44775;DHT22;31340;51.402;0.016;2024-01-15T04:55:00;2.20;99.90
44775;DHT22;31340;51.402;0.016;2024-01-15T04:57:29;2.20;99.90
44775;DHT22;31340;51.402;0.016;2024-01-15T04:59:57;2.20;99.90
44775;DHT22;31340;51.402;0.016;2024-01-15T05:02:24;2.20;99.90
44775;DHT22;31340;51.402;0.016;2024-01-15T05:04:52;2.20;99.90
44775;DHT22;31340;51.402;0.016;2024-01-15T05:07:19;2.20;99.90
44775;DHT22;31340;51.402;0.016;2024-01-15T05:09:47;2.10;99.90
44775;DHT22;31340;51.402;0.016;2024-01-15T05:12:15;2.10;99.90
44775;DHT22;31340;51.402;0.016;2024-01-15T05:14:43;2.10;99.90
44775;DHT22;31340;51.402;0.016;2024-01-15T05:17:10;2.10;99.90
44775;DHT22;31340;51.402;0.016;2024-01-15T05:19:38;2.10;99.90
44775;DHT22;31340;51.402;0.016;2024-01-15T05:22:06;2.10;99.90
44775;DHT22;31340;51.402;0.016;2024-01-15T05:24:33;2.10;99.90
44775;DHT22;31340;51.402;0.016;2024-01-15T05:27:02;2.10;99.90
44775;DHT22;31340;51.402;0.016;2024-01-15T05:29:30;2.10;99.90
44775;DHT22;31340;51.402;0.016;2024-01-15T05:31:57;2.10;99.90
44775;DHT22;31340;51.402;0.016;2024-01-15T05:34:29;2.10;99.90
44775;DHT22;31340;51.402;0.016;2024-01-15T05:36:57;2.10;99.90
44775;DHT22;31340;51.402;0.016;2024-01-15T05:39:25;2.10;99.90
44775;DHT22;31340;51.402;0.016;2024-01-15T05:41:52;2.10;99.90
44775;DHT22;31340;51.402;0.016;2024-01-15T05:44:20;2.00;99.90
44775;DHT22;31340;51.402;0.016;2024-01-15T05:46:47;2.00;99.90
44775;DHT22;31340;51.402;0.016;2024-01-15T05:49:15;2.00;99.90
44775;DHT22;31340;51.402;0.016;2024-01-15T05:51:43;2.00;99.90
44775;DHT22;31340;51.402;0.016;2024-01-15T05:54:10;2.00;99.90
44775;DHT22;31340;51.402;0.016;2024-01-15T05:56:38;2.00;99.90
44775;DHT22;31340;51.402;0.016;2024-01-15T05:59:05;2.00;99.90
44775;DHT22;31340;51.402;0.016;2024-01-15T06:01:33;2.00;99.90
44775;DHT22;31340;51.402;0.016;2024-01-15T06:04:01;2.00;99.90
44775;DHT22;31340;51.402;0.016;2024-01-15T06:06:29;2.00;99.90
44775;DHT22;31340;51.402;0.016;2024-01-15T06:08:57;1.90;99.90
44775;DHT22;31340;51.402;0.016;2024-01-15T06:11:30;2.00;99.90
44775;DHT22;31340;51.402;0.016;2024-01-15T06:13:57;2.00;99.90
44775;DHT22;31340;51.402;0.016;2024-01-15T06:16:25;2.00;99.90
44775;DHT22;31340;51.402;0.016;2024-01-15T06:18:53;2.00;99.90
44775;DHT22;31340;51.402;0.016;2024-01-15T06:21:21;2.00;99.90
44775;DHT22;31340;51.402;0.016;2024-01-15T06:23:48;2.00;99.90
44775;DHT22;31340;51.402;0.016;2024-01-15T06:26:16;1.90;99.90
44775;DHT22;31340;51.402;0.016;2024-01-15T06:28:43;1.90;99.90
44775;DHT22;31340;51.402;0.016;2024-01-15T06:31:12;1.90;99.90
44775;DHT22;31340;51.402;0.016;2024-01-15T06:33:39;1.90;99.90
44775;DHT22;31340;51.402;0.016;2024-01-15T06:36:08;1.90;99.90
44775;DHT22;31340;51.402;0.016;2024-01-15T06:38:36;1.90;99.90
44775;DHT22;31340;51.402;0.016;2024-01-15T06:41:03;1.90;99.90
44775;DHT22;31340;51.402;0.016;2024-01-15T06:43:32;1.90;99.90
44775;DHT22;31340;51.402;0.016;2024-01-15T06:46:00;1.90;99.90
44775;DHT22;31340;51.402;0.016;2024-01-15T06:48:33;1.90;99.90
44775;DHT22;31340;51.402;0.016;2024-01-15T06:51:01;1.90;99.90
44775;DHT22;31340;51.402;0.016;2024-01-15T06:53:29;1.80;99.90
44775;DHT22;31340;51.402;0.016;2024-01-15T06:55:57;1.90;99.90
44775;DHT22;31340;51.402;0.016;2024-01-15T06:58:26;1.90;99.90
44775;DHT22;31340;51.402;0.016;2024-01-15T07:00:54;1.90;99.90
44775;DHT22;31340;51.402;0.016;2024-01-15T07:03:22;1.90;99.90
44775;DHT22;31340;51.402;0.016;2024-01-15T07:05:50;1.90;99.90
44775;DHT22;31340;51.402;0.016;2024-01-15T07:08:19;1.80;99.90
44775;DHT22;31340;51.402;0.016;2024-01-15T07:10:47;1.80;99.90
44775;DHT22;31340;51.402;0.016;2024-01-15T07:13:15;1.80;99.90
44775;DHT22;31340;51.402;0.016;2024-01-15T07:15:43;1.80;99.90
44775;DHT22;31340;51.402;0.016;2024-01-15T07:18:11;1.80;99.90
44775;DHT22;31340;51.402;0.016;2024-01-15T07:20:39;1.80;99.90
44775;DHT22;31340;51.402;0.016;2024-01-15T07:23:06;1.80;99.90
44775;DHT22;31340;51.402;0.016;2024-01-15T07:25:34;1.80;99.90
44775;DHT22;31340;51.402;0.016;2024-01-15T07:28:02;1.80;99.90
44775;DHT22;31340;51.402;0.016;2024-01-15T07:30:31;1.80;99.90
44775;DHT22;31340;51.402;0.016;2024-01-15T07:32:58;1.80;99.90
44775;DHT22;31340;51.402;0.016;2024-01-15T07:35:27;1.80;99.90
44775;DHT22;31340;51.402;0.016;2024-01-15T07:37:54;1.70;99.90
44775;DHT22;31340;51.402;0.016;2024-01-15T07:40:22;1.70;99.90
44775;DHT22;31340;51.402;0.016;2024-01-15T07:42:52;1.70;99.90
44775;DHT22;31340;51.402;0.016;2024-01-15T07:45:20;1.70;99.90
44775;DHT22;31340;51.402;0.016;2024-01-15T07:47:50;1.70;99.90
44775;DHT22;31340;51.402;0.016;2024-01-15T07:50:17;1.70;99.90
44775;DHT22;31340;51.402;0.016;2024-01-15T07:52:45;1.70;99.90
44775;DHT22;31340;51.402;0.016;2024-01-15T07:55:13;1.60;99.90
44775;DHT22;31340;51.402;0.016;2024-01-15T07:57:41;1.60;99.90
44775;DHT22;31340;51.402;0.016;2024-01-15T08:00:10;1.60;99.90
44775;DHT22;31340;51.402;0.016;2024-01-15T08:02:38;1.60;99.90
44775;DHT22;31340;51.402;0.016;2024-01-15T08:05:06;1.60;99.90
44775;DHT22;31340;51.402;0.016;2024-01-15T08:07:33;1.60;99.90
44775;DHT22;31340;51.402;0.016;2024-01-15T08:10:02;1.60;99.90
44775;DHT22;31340;51.402;0.016;2024-01-15T08:12:30;1.60;99.90
44775;DHT22;31340;51.402;0.016;2024-01-15T08:14:58;1.60;99.90
44775;DHT22;31340;51.402;0.016;2024-01-15T08:17:26;1.60;99.90
44775;DHT22;31340;51.402;0.016;2024-01-15T08:19:56;1.60;99.90
44775;DHT22;31340;51.402;0.016;2024-01-15T08:22:24;1.60;99.90
44775;DHT22;31340;51.402;0.016;2024-01-15T08:24:52;1.60;99.90
44775;DHT22;31340;51.402;0.016;2024-01-15T08:27:22;1.60;99.90
44775;DHT22;31340;51.402;0.016;2024-01-15T08:29:50;1.60;99.90
44775;DHT22;31340;51.402;0.016;2024-01-15T08:32:18;1.60;99.90
44775;DHT22;31340;51.402;0.016;2024-01-15T08:34:46;1.70;99.90
44775;DHT22;31340;51.402;0.016;2024-01-15T08:37:16;1.70;99.90
44775;DHT22;31340;51.402;0.016;2024-01-15T08:39:44;1.70;99.90
44775;DHT22;31340;51.402;0.016;2024-01-15T08:42:11;1.70;99.90
44775;DHT22;31340;51.402;0.016;2024-01-15T08:44:39;1.70;99.90
44775;DHT22;31340;51.402;0.016;2024-01-15T08:47:10;1.70;99.90
44775;DHT22;31340;51.402;0.016;2024-01-15T08:49:38;1.70;99.90
44775;DHT22;31340;51.402;0.016;2024-01-15T08:52:07;1.80;99.90
44775;DHT22;31340;51.402;0.016;2024-01-15T08:54:35;1.80;99.90
44775;DHT22;31340;51.402;0.016;2024-01-15T08:57:03;1.80;99.90
44775;DHT22;31340;51.402;0.016;2024-01-15T08:59:31;1.90;99.90
44775;DHT22;31340;51.402;0.016;2024-01-15T09:01:58;1.90;99.90
44775;DHT22;31340;51.402;0.016;2024-01-15T09:04:27;1.90;99.90
44775;DHT22;31340;51.402;0.016;2024-01-15T09:06:54;2.00;99.90
44775;DHT22;31340;51.402;0.016;2024-01-15T09:09:22;2.00;99.90
44775;DHT22;31340;51.402;0.016;2024-01-15T09:11:50;2.00;99.90
44775;DHT22;31340;51.402;0.016;2024-01-15T09:14:19;2.10;99.90
44775;DHT22;31340;51.402;0.016;2024-01-15T09:17:04;2.10;99.90
44775;DHT22;31340;51.402;0.016;2024-01-15T09:19:32;2.20;99.90
44775;DHT22;31340;51.402;0.016;2024-01-15T09:22:01;2.20;99.90
44775;DHT22;31340;51.402;0.016;2024-01-15T09:24:29;2.30;99.90
44775;DHT22;31340;51.402;0.016;2024-01-15T09:26:56;2.30;99.90
44775;DHT22;31340;51.402;0.016;2024-01-15T09:29:24;2.30;99.90
44775;DHT22;31340;51.402;0.016;2024-01-15T09:31:51;2.40;99.90
44775;DHT22;31340;51.402;0.016;2024-01-15T09:34:21;2.40;99.90
44775;DHT22;31340;51.402;0.016;2024-01-15T09:36:50;2.40;99.90
44775;DHT22;31340;51.402;0.016;2024-01-15T09:39:17;2.50;99.90
44775;DHT22;31340;51.402;0.016;2024-01-15T09:41:47;2.50;99.90
44775;DHT22;31340;51.402;0.016;2024-01-15T09:44:16;2.50;99.90
44775;DHT22;31340;51.402;0.016;2024-01-15T09:46:45;2.60;99.90
44775;DHT22;31340;51.402;0.016;2024-01-15T09:49:13;2.60;99.90
44775;DHT22;31340;51.402;0.016;2024-01-15T09:51:42;2.70;99.90
44775;DHT22;31340;51.402;0.016;2024-01-15T09:54:10;2.70;99.90
44775;DHT22;31340;51.402;0.016;2024-01-15T09:56:41;2.80;99.90
44775;DHT22;31340;51.402;0.016;2024-01-15T09:59:10;2.90;99.90
44775;DHT22;31340;51.402;0.016;2024-01-15T10:01:40;3.00;99.90
44775;DHT22;31340;51.402;0.016;2024-01-15T10:04:09;3.00;99.90
44775;DHT22;31340;51.402;0.016;2024-01-15T10:06:39;3.10;99.90
44775;DHT22;31340;51.402;0.016;2024-01-15T10:09:07;3.20;99.90
44775;DHT22;31340;51.402;0.016;2024-01-15T10:11:35;3.20;99.90
44775;DHT22;31340;51.402;0.016;2024-01-15T10:14:04;3.30;99.90
44775;DHT22;31340;51.402;0.016;2024-01-15T10:16:32;3.40;99.90
44775;DHT22;31340;51.402;0.016;2024-01-15T10:19:01;3.40;99.90
44775;DHT22;31340;51.402;0.016;2024-01-15T10:21:35;3.50;99.90
44775;DHT22;31340;51.402;0.016;2024-01-15T10:24:03;3.60;99.90
44775;DHT22;31340;51.402;0.016;2024-01-15T10:26:32;3.70;99.90
44775;DHT22;31340;51.402;0.016;2024-01-15T10:29:00;3.80;99.90
44775;DHT22;31340;51.402;0.016;2024-01-15T10:31:28;3.90;99.90
44775;DHT22;31340;51.402;0.016;2024-01-15T10:34:11;4.00;99.90
44775;DHT22;31340;51.402;0.016;2024-01-15T10:36:40;4.10;99.90
44775;DHT22;31340;51.402;0.016;2024-01-15T10:39:08;4.20;99.90
44775;DHT22;31340;51.402;0.016;2024-01-15T10:41:36;4.30;99.90
44775;DHT22;31340;51.402;0.016;2024-01-15T10:44:04;4.40;99.90
44775;DHT22;31340;51.402;0.016;2024-01-15T10:46:33;4.50;99.90
44775;DHT22;31340;51.402;0.016;2024-01-15T10:49:01;4.60;99.90
44775;DHT22;31340;51.402;0.016;2024-01-15T10:51:31;4.70;99.90
44775;DHT22;31340;51.402;0.016;2024-01-15T10:54:01;4.80;99.90
44775;DHT22;31340;51.402;0.016;2024-01-15T10:56:30;4.90;99.90
44775;DHT22;31340;51.402;0.016;2024-01-15T10:58:59;4.90;99.90
44775;DHT22;31340;51.402;0.016;2024-01-15T11:01:28;5.00;99.90
44775;DHT22;31340;51.402;0.016;2024-01-15T11:03:58;5.10;99.80
44775;DHT22;31340;51.402;0.016;2024-01-15T11:06:28;5.20;99.50
44775;DHT22;31340;51.402;0.016;2024-01-15T11:09:08;5.30;99.90
44775;DHT22;31340;51.402;0.016;2024-01-15T11:11:40;5.40;99.90
44775;DHT22;31340;51.402;0.016;2024-01-15T11:14:08;5.60;99.90
44775;DHT22;31340;51.402;0.016;2024-01-15T11:16:58;5.70;99.90
44775;DHT22;31340;51.402;0.016;2024-01-15T11:22:47;5.80;98.50
44775;DHT22;31340;51.402;0.016;2024-01-15T11:25:18;5.90;98.10
44775;DHT22;31340;51.402;0.016;2024-01-15T11:27:50;6.00;98.00
44775;DHT22;31340;51.402;0.016;2024-01-15T11:30:25;6.10;97.60
44775;DHT22;31340;51.402;0.016;2024-01-15T11:32:53;6.10;97.00
44775;DHT22;31340;51.402;0.016;2024-01-15T11:35:21;6.20;97.30
44775;DHT22;31340;51.402;0.016;2024-01-15T11:43:00;6.40;96.30
44775;DHT22;31340;51.402;0.016;2024-01-15T11:45:30;6.60;96.10
44775;DHT22;31340;51.402;0.016;2024-01-15T11:50:49;6.80;95.60
44775;DHT22;31340;51.402;0.016;2024-01-15T11:53:40;7.00;95.30
44775;DHT22;31340;51.402;0.016;2024-01-15T11:56:16;7.10;95.10
44775;DHT22;31340;51.402;0.016;2024-01-15T11:58:46;7.30;95.00
44775;DHT22;31340;51.402;0.016;2024-01-15T12:01:15;7.40;94.80
44775;DHT22;31340;51.402;0.016;2024-01-15T12:03:44;7.60;94.40
44775;DHT22;31340;51.402;0.016;2024-01-15T12:06:20;7.80;93.90
44775;DHT22;31340;51.402;0.016;2024-01-15T12:08:48;8.00;93.40
44775;DHT22;31340;51.402;0.016;2024-01-15T12:11:21;8.10;92.90
44775;DHT22;31340;51.402;0.016;2024-01-15T12:13:52;8.20;92.80
44775;DHT22;31340;51.402;0.016;2024-01-15T12:16:22;8.40;92.90
44775;DHT22;31340;51.402;0.016;2024-01-15T12:18:52;8.50;92.80
44775;DHT22;31340;51.402;0.016;2024-01-15T12:21:26;8.70;92.30
44775;DHT22;31340;51.402;0.016;2024-01-15T12:23:56;8.90;92.00
44775;DHT22;31340;51.402;0.016;2024-01-15T12:26:23;9.00;91.60
44775;DHT22;31340;51.402;0.016;2024-01-15T12:28:51;9.10;91.50
44775;DHT22;31340;51.402;0.016;2024-01-15T12:31:22;9.30;91.50
44775;DHT22;31340;51.402;0.016;2024-01-15T12:33:50;9.50;90.80
44775;DHT22;31340;51.402;0.016;2024-01-15T12:36:21;9.70;90.80
44775;DHT22;31340;51.402;0.016;2024-01-15T12:38:49;9.80;90.30
44775;DHT22;31340;51.402;0.016;2024-01-15T12:41:16;10.00;90.10
44775;DHT22;31340;51.402;0.016;2024-01-15T12:43:44;10.10;89.70
44775;DHT22;31340;51.402;0.016;2024-01-15T12:46:12;10.20;89.00
44775;DHT22;31340;51.402;0.016;2024-01-15T12:48:43;10.40;88.90
44775;DHT22;31340;51.402;0.016;2024-01-15T12:51:11;10.50;87.90
44775;DHT22;31340;51.402;0.016;2024-01-15T12:53:38;10.70;87.30
44775;DHT22;31340;51.402;0.016;2024-01-15T12:56:06;10.80;86.60
44775;DHT22;31340;51.402;0.016;2024-01-15T12:58:34;11.00;85.80
44775;DHT22;31340;51.402;0.016;2024-01-15T13:01:03;11.20;84.70
44775;DHT22;31340;51.402;0.016;2024-01-15T13:03:30;11.30;82.90
44775;DHT22;31340;51.402;0.016;2024-01-15T13:05:59;11.40;82.00
44775;DHT22;31340;51.402;0.016;2024-01-15T13:08:27;11.50;81.70
44775;DHT22;31340;51.402;0.016;2024-01-15T13:10:56;11.60;80.40
44775;DHT22;31340;51.402;0.016;2024-01-15T13:13:24;11.70;79.30
44775;DHT22;31340;51.402;0.016;2024-01-15T13:15:53;11.70;79.00
44775;DHT22;31340;51.402;0.016;2024-01-15T13:18:22;11.80;78.90
44775;DHT22;31340;51.402;0.016;2024-01-15T13:20:50;11.80;78.70
44775;DHT22;31340;51.402;0.016;2024-01-15T13:23:18;11.90;78.00
44775;DHT22;31340;51.402;0.016;2024-01-15T13:25:47;12.10;78.10
44775;DHT22;31340;51.402;0.016;2024-01-15T13:28:15;12.10;77.70
44775;DHT22;31340;51.402;0.016;2024-01-15T13:30:43;12.20;77.10
44775;DHT22;31340;51.402;0.016;2024-01-15T13:33:10;12.30;76.30
44775;DHT22;31340;51.402;0.016;2024-01-15T13:35:39;12.40;76.00
44775;DHT22;31340;51.402;0.016;2024-01-15T13:38:07;12.50;74.30
44775;DHT22;31340;51.402;0.016;2024-01-15T13:40:36;12.60;74.30
44775;DHT22;31340;51.402;0.016;2024-01-15T13:43:04;12.70;73.90
44775;DHT22;31340;51.402;0.016;2024-01-15T13:45:36;12.80;73.80
44775;DHT22;31340;51.402;0.016;2024-01-15T13:48:05;12.90;72.20
44775;DHT22;31340;51.402;0.016;2024-01-15T13:50:33;12.90;71.20
44775;DHT22;31340;51.402;0.016;2024-01-15T13:53:03;13.00;70.30
44775;DHT22;31340;51.402;0.016;2024-01-15T13:55:31;13.00;69.80
44775;DHT22;31340;51.402;0.016;2024-01-15T13:57:59;13.10;69.80
44775;DHT22;31340;51.402;0.016;2024-01-15T14:00:27;13.10;70.00
44775;DHT22;31340;51.402;0.016;2024-01-15T14:02:55;13.20;69.20
44775;DHT22;31340;51.402;0.016;2024-01-15T14:05:25;13.30;68.60
44775;DHT22;31340;51.402;0.016;2024-01-15T14:07:52;13.30;67.90
44775;DHT22;31340;51.402;0.016;2024-01-15T14:10:20;13.40;67.40
44775;DHT22;31340;51.402;0.016;2024-01-15T14:12:48;13.40;66.30
44775;DHT22;31340;51.402;0.016;2024-01-15T14:15:16;13.40;65.90
44775;DHT22;31340;51.402;0.016;2024-01-15T14:17:45;13.40;65.70
44775;DHT22;31340;51.402;0.016;2024-01-15T14:20:13;13.40;65.50
44775;DHT22;31340;51.402;0.016;2024-01-15T14:22:42;13.40;65.10
44775;DHT22;31340;51.402;0.016;2024-01-15T14:25:09;13.40;65.00
44775;DHT22;31340;51.402;0.016;2024-01-15T14:27:37;13.40;64.60
44775;DHT22;31340;51.402;0.016;2024-01-15T14:30:06;13.30;63.90
44775;DHT22;31340;51.402;0.016;2024-01-15T14:32:36;13.20;63.40
44775;DHT22;31340;51.402;0.016;2024-01-15T14:35:05;13.00;65.00
44775;DHT22;31340;51.402;0.016;2024-01-15T14:37:33;12.80;64.70
44775;DHT22;31340;51.402;0.016;2024-01-15T14:40:02;12.50;64.20
44775;DHT22;31340;51.402;0.016;2024-01-15T14:42:32;12.30;62.70
44775;DHT22;31340;51.402;0.016;2024-01-15T14:45:00;12.10;63.20
44775;DHT22;31340;51.402;0.016;2024-01-15T14:47:31;11.80;63.30
44775;DHT22;31340;51.402;0.016;2024-01-15T14:49:59;11.60;62.70
44775;DHT22;31340;51.402;0.016;2024-01-15T14:52:27;11.30;62.50
44775;DHT22;31340;51.402;0.016;2024-01-15T14:54:55;11.00;63.10
44775;DHT22;31340;51.402;0.016;2024-01-15T14:57:26;10.80;63.20
44775;DHT22;31340;51.402;0.016;2024-01-15T14:59:55;10.50;63.10
44775;DHT22;31340;51.402;0.016;2024-01-15T15:02:25;10.30;63.50
44775;DHT22;31340;51.402;0.016;2024-01-15T15:05:00;10.00;63.50
44775;DHT22;31340;51.402;0.016;2024-01-15T15:07:33;9.80;63.90
44775;DHT22;31340;51.402;0.016;2024-01-15T15:10:05;9.60;64.40
44775;DHT22;31340;51.402;0.016;2024-01-15T15:12:33;9.40;64.90
44775;DHT22;31340;51.402;0.016;2024-01-15T15:15:03;9.20;65.50
44775;DHT22;31340;51.402;0.016;2024-01-15T15:17:40;9.00;66.10
44775;DHT22;31340;51.402;0.016;2024-01-15T15:20:11;8.90;66.70
44775;DHT22;31340;51.402;0.016;2024-01-15T15:22:39;8.70;67.30
44775;DHT22;31340;51.402;0.016;2024-01-15T15:25:09;8.50;67.70
44775;DHT22;31340;51.402;0.016;2024-01-15T15:27:39;8.40;67.60
44775;DHT22;31340;51.402;0.016;2024-01-15T15:30:08;8.20;67.40
44775;DHT22;31340;51.402;0.016;2024-01-15T15:32:36;8.10;67.40
44775;DHT22;31340;51.402;0.016;2024-01-15T15:35:05;8.00;68.00
44775;DHT22;31340;51.402;0.016;2024-01-15T15:37:34;7.80;68.10
44775;DHT22;31340;51.402;0.016;2024-01-15T15:40:04;7.70;68.50
44775;DHT22;31340;51.402;0.016;2024-01-15T15:42:36;7.60;69.10
44775;DHT22;31340;51.402;0.016;2024-01-15T15:45:04;7.50;69.80
44775;DHT22;31340;51.402;0.016;2024-01-15T15:47:35;7.30;70.40
44775;DHT22;31340;51.402;0.016;2024-01-15T15:50:04;7.30;70.80
44775;DHT22;31340;51.402;0.016;2024-01-15T15:52:32;7.20;71.10
44775;DHT22;31340;51.402;0.016;2024-01-15T15:55:00;7.00;71.60
44775;DHT22;31340;51.402;0.016;2024-01-15T15:57:30;6.90;72.00
44775;DHT22;31340;51.402;0.016;2024-01-15T15:59:59;6.80;72.30
44775;DHT22;31340;51.402;0.016;2024-01-15T16:02:27;6.70;72.50
44775;DHT22;31340;51.402;0.016;2024-01-15T16:04:58;6.70;72.80
44775;DHT22;31340;51.402;0.016;2024-01-15T16:07:26;6.60;73.00